Airfield :
LOGIN :

Register | Disclaimer

   EN    FR    IT 

 










Legend :    VFR   Marginal VFR   IFR   Intensive IFR   Very Intensive IFR
Visi :
Ceiling :
>= 8 km
>= 3000ft
5 to 8 km
1000 to 3000 ft
1500m to 5 km
500 to 1000 ft
800 to 1500m
200 to 500 ft
< 800m
< 200 ft
Symbols :   Thunderstorms  Fog  Heavy snow  Heavy precipitations  Wind > 20 kt
SIGMETs :     Misc.  Thunderstorms  Icing  Turbulence  Mountain Waves  Volcanic Ashes







- Airport Elevation : 3125 ft
- IATA code : ESB


LTAC - Ankara Esenboga

CURRENT METAR :
  • 201250Z VRB04KT 9999 FEW040 12/M07 Q1017 NOSIG RMK RWY21L 24006KT 200V260 RWY03L 21004KT 120V260 RWY21R 25005KT 220V280

EXPIRED METARs :
  • 201220Z 30005KT 230V350 9999 FEW040 12/M05 Q1017 NOSIG RMK RWY21L 25006KT 210V340 RWY03L 31003KT 240V360 RWY21R 24005KT 200V290
  • 201150Z 25004KT 170V320 9999 FEW040 12/M06 Q1017 NOSIG RMK RWY21L 30005KT 240V350 RWY03L 23004KT 190V280 RWY21R VRB03KT
  • 201120Z VRB04KT 9999 FEW040 12/M03 Q1018 NOSIG RMK RWY21L VRB06KT RWY03L 17004KT 070V230 RWY21R 21005KT 150V320
  • 201050Z VRB05KT 9999 FEW040 12/M03 Q1018 NOSIG RMK RWY21L 19004KT 120V250 RWY03L 19005KT 120V260 RWY21R 19005KT 160V220
  • 201020Z 21005KT 130V250 9999 FEW040 11/M02 Q1018 NOSIG RMK RWY21L 20006KT 110V230 RWY03L 19006KT 160V230 RWY21R 23008KT 160V280

TAF TAF LTAC
Valid from the 20 at 12:00 until the 21 at 12:00 UTC


201040Z 2012/2112 VRB02KT 9999 FEW040
BECMG 2013/2015 CAVOK
BECMG 2108/2110 SCT040
No reported NOTAMs for that airfield.



MET'MAP, your aeronautical weather chart ! - Copyright ORBIFLY December 2007 - Disclaimer

ORBIFLY MET'MAP TEAM :

Programming & Development : Alexandra Zaïnal
Concept & Development : Baudouin d'Aumeries
Co-Development & Prog : Marc-Olivier Méhu
Technical & hardware support : Manuel Goepfert

Contact : metmap@orbifly.com




SOURCES & CREDITS :

   NOAA